Saint Agatha, Maine
Current Conditions -  °F | °C
As of 2:58 AM on Sunday 26 Oct 2014 (Local Time) from KFVE Reporting Station
Light Rain Light Rain  
Wind Chill: 34°   Ceiling: 200
Heat Index: 39°   Visibility: 0.75mi
Dew Point: 38°   Wind: 7mph
Humidity: 96%   Direction: 100°E
Pressure: 29.39"   Gusts: NA
Location:  47.24°N, 68.31°W
Report Text: KFVE 260658Z AUTO 10006KT 3/4SM -RA BR VV002 04/03 A2939 RMK AO2 P0000 T00390033
Loading
Personal Weather Stations






























Interactive Weather Map
Tropical Storm Tracking
New forecast layout! Learn more

10-Day Weather Forecast

Advertisements
Track Severe Weather on mobile